createdAt,value
2023-02-11T00:01:07.258Z,1.60
2023-02-11T00:03:34.019Z,1.50
2023-02-11T00:06:02.755Z,1.50
2023-02-11T00:08:29.413Z,1.60
2023-02-11T00:10:57.509Z,1.40
2023-02-11T00:13:25.534Z,1.50
2023-02-11T00:15:52.707Z,1.50
2023-02-11T00:18:19.427Z,1.40
2023-02-11T00:20:46.387Z,1.30
2023-02-11T00:23:13.355Z,1.40
2023-02-11T00:25:41.924Z,1.30
2023-02-11T00:28:09.639Z,1.20
2023-02-11T00:30:36.953Z,1.10
2023-02-11T00:33:04.095Z,1.10
2023-02-11T00:35:30.732Z,1.20
2023-02-11T00:37:57.497Z,1.20
2023-02-11T00:40:24.553Z,1.20
2023-02-11T00:42:51.271Z,1.30
2023-02-11T00:45:17.889Z,1.20
2023-02-11T00:47:44.541Z,1.30
2023-02-11T00:50:11.181Z,1.30
2023-02-11T00:52:37.913Z,1.30
2023-02-11T00:55:04.886Z,1.30
2023-02-11T00:57:31.613Z,1.30
2023-02-11T00:59:58.223Z,1.20
2023-02-11T01:02:24.878Z,1.20
2023-02-11T01:04:51.629Z,1.30
2023-02-11T01:07:18.264Z,1.30
2023-02-11T01:09:44.895Z,1.40
2023-02-11T01:12:11.576Z,1.40
2023-02-11T01:14:38.315Z,1.40
2023-02-11T01:17:06.453Z,1.40
2023-02-11T01:19:33.120Z,1.50
2023-02-11T01:21:59.899Z,1.50
2023-02-11T01:24:26.624Z,1.50
2023-02-11T01:26:53.246Z,1.50
2023-02-11T01:29:20.163Z,1.50
2023-02-11T01:31:46.898Z,1.50
2023-02-11T01:34:14.525Z,1.50
2023-02-11T01:36:41.332Z,1.60
2023-02-11T01:39:08.800Z,1.60
2023-02-11T01:41:36.353Z,1.50
2023-02-11T01:44:26.000Z,1.60
2023-02-11T01:46:52.797Z,1.50
2023-02-11T01:49:30.687Z,1.60
2023-02-11T01:52:15.015Z,1.60
2023-02-11T01:55:11.353Z,1.60
2023-02-11T01:57:41.478Z,1.60
2023-02-11T02:00:15.683Z,1.60
2023-02-11T02:03:00.146Z,1.60
2023-02-11T02:05:57.576Z,1.60
2023-02-11T02:08:38.379Z,1.60
2023-02-11T02:11:05.154Z,1.70
2023-02-11T02:13:33.562Z,1.70
2023-02-11T02:16:09.304Z,1.60
2023-02-11T02:19:05.654Z,1.60
2023-02-11T02:21:44.565Z,1.70
2023-02-11T02:24:27.722Z,1.70
2023-02-11T02:27:02.883Z,1.70
2023-02-11T02:29:57.457Z,1.70
2023-02-11T02:32:37.789Z,1.70
2023-02-11T02:35:15.772Z,1.70
2023-02-11T02:37:55.314Z,1.70
2023-02-11T02:40:34.988Z,1.70
2023-02-11T02:43:03.003Z,1.70
2023-02-11T02:45:29.698Z,1.70
2023-02-11T02:47:56.646Z,1.70
2023-02-11T02:50:30.389Z,1.70
2023-02-11T02:53:00.087Z,1.70
2023-02-11T02:55:40.396Z,1.80
2023-02-11T02:58:48.264Z,1.80
2023-02-11T03:01:21.759Z,1.80
2023-02-11T03:03:53.237Z,1.80
2023-02-11T03:06:34.449Z,1.80
2023-02-11T03:09:25.552Z,1.80
2023-02-11T03:11:52.619Z,1.70
2023-02-11T03:14:20.889Z,1.70
2023-02-11T03:16:50.185Z,1.80
2023-02-11T03:19:23.801Z,1.80
2023-02-11T03:21:52.223Z,1.80
2023-02-11T03:24:25.770Z,1.80
2023-02-11T03:26:55.885Z,1.80
2023-02-11T03:29:34.826Z,1.70
2023-02-11T03:32:16.617Z,1.80
2023-02-11T03:34:58.505Z,1.70
2023-02-11T03:37:57.718Z,1.70
2023-02-11T03:40:32.540Z,1.70
2023-02-11T03:43:17.762Z,1.60
2023-02-11T03:45:47.170Z,1.50
2023-02-11T03:48:25.840Z,1.50
2023-02-11T03:50:54.112Z,1.50
2023-02-11T03:53:22.810Z,1.50
2023-02-11T03:55:51.409Z,1.50
2023-02-11T03:58:18.326Z,1.40
2023-02-11T04:00:45.279Z,1.40
2023-02-11T04:03:13.084Z,1.40
2023-02-11T04:05:40.644Z,1.40
2023-02-11T04:08:07.749Z,1.40
2023-02-11T04:10:34.352Z,1.30
2023-02-11T04:13:01.033Z,1.30
2023-02-11T04:15:27.697Z,1.30
2023-02-11T04:17:54.408Z,1.30
2023-02-11T04:20:21.269Z,1.30
2023-02-11T04:22:47.866Z,1.30
2023-02-11T04:25:14.491Z,1.30
2023-02-11T04:27:41.069Z,1.30
2023-02-11T04:30:10.576Z,1.20
2023-02-11T04:32:37.199Z,1.20
2023-02-11T04:35:04.187Z,1.20
2023-02-11T04:37:30.838Z,1.20
2023-02-11T04:39:57.600Z,1.20
2023-02-11T04:42:24.559Z,1.20
2023-02-11T04:44:51.171Z,1.20
2023-02-11T04:47:17.815Z,1.10
2023-02-11T04:49:44.660Z,1.10
2023-02-11T04:52:11.341Z,1.10
2023-02-11T04:54:38.053Z,1.10
2023-02-11T04:57:04.817Z,1.10
2023-02-11T04:59:31.466Z,1.00
2023-02-11T05:01:58.212Z,1.00
2023-02-11T05:04:24.886Z,1.00
2023-02-11T05:06:51.584Z,0.90
2023-02-11T05:09:18.588Z,0.90
2023-02-11T05:11:45.174Z,0.90
2023-02-11T05:14:11.835Z,0.90
2023-02-11T05:16:38.548Z,1.00
2023-02-11T05:19:05.346Z,1.00
2023-02-11T05:21:32.012Z,1.00
2023-02-11T05:23:58.697Z,1.00
2023-02-11T05:26:26.409Z,1.10
2023-02-11T05:28:53.139Z,1.00
2023-02-11T05:31:19.778Z,0.90
2023-02-11T05:33:46.386Z,1.00
2023-02-11T05:36:13.802Z,1.00
2023-02-11T05:38:42.366Z,1.00
2023-02-11T05:41:10.347Z,1.00
2023-02-11T05:43:37.141Z,1.00
2023-02-11T05:46:04.792Z,1.10
2023-02-11T05:48:31.848Z,1.10
2023-02-11T05:50:58.545Z,1.10
2023-02-11T05:53:25.221Z,1.00
2023-02-11T05:55:52.106Z,1.00
2023-02-11T05:58:18.968Z,1.00
2023-02-11T06:00:45.649Z,1.00
2023-02-11T06:03:12.244Z,1.00
2023-02-11T06:05:38.972Z,1.10
2023-02-11T06:08:05.638Z,1.10
2023-02-11T06:10:32.255Z,1.10
2023-02-11T06:12:58.846Z,1.10
2023-02-11T06:15:25.485Z,1.20
2023-02-11T06:17:52.603Z,1.20
2023-02-11T06:20:19.424Z,1.20
2023-02-11T06:22:46.349Z,1.20
2023-02-11T06:25:13.649Z,1.20
2023-02-11T06:27:40.337Z,1.10
2023-02-11T06:30:08.206Z,1.10
2023-02-11T06:32:43.829Z,1.10
2023-02-11T06:35:12.350Z,1.00
2023-02-11T06:37:40.119Z,0.80
2023-02-11T06:40:07.025Z,0.70
2023-02-11T06:42:34.555Z,0.70
2023-02-11T06:45:01.220Z,0.80
2023-02-11T06:47:27.845Z,0.80
2023-02-11T06:49:54.442Z,0.80
2023-02-11T06:52:21.185Z,0.80
2023-02-11T06:54:47.810Z,0.90
2023-02-11T06:57:14.486Z,0.90
2023-02-11T06:59:41.304Z,1.00
2023-02-11T07:02:10.471Z,1.10
2023-02-11T07:04:37.155Z,1.10
2023-02-11T07:07:03.913Z,1.20
2023-02-11T07:09:30.508Z,1.20
2023-02-11T07:11:57.134Z,1.20
2023-02-11T07:14:23.818Z,1.30
2023-02-11T07:16:50.445Z,1.40
2023-02-11T07:19:17.311Z,1.50
2023-02-11T07:21:43.932Z,1.60
2023-02-11T07:24:11.488Z,1.70
2023-02-11T07:26:38.701Z,1.80
2023-02-11T07:29:05.417Z,1.90
2023-02-11T07:31:32.994Z,2.00
2023-02-11T07:34:01.580Z,1.90
2023-02-11T07:36:29.753Z,2.00
2023-02-11T07:38:56.429Z,2.10
2023-02-11T07:41:25.142Z,2.20
2023-02-11T07:43:51.861Z,2.30
2023-02-11T07:46:21.240Z,2.40
2023-02-11T07:48:48.387Z,2.50
2023-02-11T07:51:21.289Z,2.50
2023-02-11T07:53:47.956Z,2.50
2023-02-11T07:56:16.312Z,2.50
2023-02-11T07:58:43.385Z,2.50
2023-02-11T08:01:18.333Z,2.50
2023-02-11T08:03:45.805Z,2.50
2023-02-11T08:06:16.529Z,2.50
2023-02-11T08:08:43.451Z,2.50
2023-02-11T08:11:15.377Z,2.50
2023-02-11T08:13:42.525Z,2.70
2023-02-11T08:16:09.851Z,2.80
2023-02-11T08:18:36.917Z,2.80
2023-02-11T08:21:08.058Z,2.90
2023-02-11T08:23:38.531Z,2.90
2023-02-11T08:26:08.132Z,3.00
2023-02-11T08:28:39.833Z,3.10
2023-02-11T08:31:08.344Z,3.30
2023-02-11T08:33:35.540Z,3.40
2023-02-11T08:36:07.685Z,3.40
2023-02-11T08:38:34.416Z,3.50
2023-02-11T08:41:01.263Z,3.40
2023-02-11T08:43:27.884Z,3.40
2023-02-11T08:45:54.643Z,3.30
2023-02-11T08:48:21.269Z,3.30
2023-02-11T08:50:47.871Z,3.30
2023-02-11T08:53:14.451Z,3.10
2023-02-11T08:55:41.107Z,3.10
2023-02-11T08:58:07.731Z,3.10
2023-02-11T09:00:34.341Z,3.10
2023-02-11T09:03:01.409Z,3.10
2023-02-11T09:05:28.066Z,3.10
2023-02-11T09:07:54.631Z,3.10
2023-02-11T09:10:21.263Z,3.10
2023-02-11T09:12:47.901Z,3.20
2023-02-11T09:15:14.517Z,3.20
2023-02-11T09:17:41.125Z,3.30
2023-02-11T09:20:10.695Z,3.30
2023-02-11T09:22:37.402Z,3.30
2023-02-11T09:25:04.042Z,3.30
2023-02-11T09:27:30.621Z,3.40
2023-02-11T09:29:57.311Z,3.30
2023-02-11T09:32:24.048Z,3.30
2023-02-11T09:34:50.794Z,3.40
2023-02-11T09:37:17.416Z,3.30
2023-02-11T09:39:46.122Z,3.30
2023-02-11T09:42:43.783Z,3.20
2023-02-11T09:45:25.988Z,3.30
2023-02-11T09:48:10.501Z,3.30
2023-02-11T09:50:41.779Z,3.40
2023-02-11T09:53:23.392Z,3.40
2023-02-11T09:55:55.716Z,3.40
2023-02-11T09:58:34.579Z,3.50
2023-02-11T10:01:12.700Z,3.50
2023-02-11T10:03:42.090Z,3.60
2023-02-11T10:06:20.982Z,3.60
2023-02-11T10:09:28.047Z,3.60
2023-02-11T10:12:19.459Z,3.70
2023-02-11T10:15:16.814Z,3.70
2023-02-11T10:18:12.305Z,3.50
2023-02-11T10:20:50.859Z,3.60
2023-02-11T10:23:25.757Z,3.60
2023-02-11T10:25:54.517Z,3.60
2023-02-11T10:28:29.770Z,3.60
2023-02-11T10:31:08.617Z,3.60
2023-02-11T10:33:56.440Z,3.70
2023-02-11T10:36:30.776Z,3.60
2023-02-11T10:39:02.548Z,3.70
2023-02-11T10:41:36.753Z,3.70
2023-02-11T10:44:07.146Z,3.70
2023-02-11T10:46:38.084Z,3.90
2023-02-11T10:49:04.704Z,3.90
2023-02-11T10:51:34.267Z,4.00
2023-02-11T10:54:04.068Z,4.10
2023-02-11T10:56:33.863Z,4.10
2023-02-11T10:59:04.507Z,4.10
2023-02-11T11:01:45.128Z,4.10
2023-02-11T11:04:30.017Z,4.10
2023-02-11T11:06:58.915Z,4.10
2023-02-11T11:09:33.082Z,4.20
2023-02-11T11:11:59.781Z,4.30
2023-02-11T11:14:28.990Z,4.30
2023-02-11T11:16:55.847Z,4.40
2023-02-11T11:19:24.766Z,4.40
2023-02-11T11:21:53.665Z,4.60
2023-02-11T11:24:29.377Z,4.60
2023-02-11T11:27:01.450Z,4.50
2023-02-11T11:29:38.503Z,4.60
2023-02-11T11:32:20.672Z,4.60
2023-02-11T11:34:56.789Z,4.60
2023-02-11T11:37:31.707Z,4.60
2023-02-11T11:40:09.569Z,4.60
2023-02-11T11:42:38.725Z,4.60
2023-02-11T11:45:20.090Z,4.60
2023-02-11T11:47:52.565Z,4.60
2023-02-11T11:50:43.338Z,4.70
2023-02-11T11:53:21.207Z,4.70
2023-02-11T11:55:59.383Z,4.80
2023-02-11T11:58:29.186Z,5.00
2023-02-11T12:01:20.483Z,5.00
2023-02-11T12:04:08.851Z,5.10
2023-02-11T12:06:55.662Z,5.20
2023-02-11T12:09:46.667Z,5.30
2023-02-11T12:12:41.173Z,5.30
2023-02-11T12:15:28.808Z,5.50
2023-02-11T12:18:17.843Z,5.50
2023-02-11T12:21:09.032Z,5.60
2023-02-11T12:23:47.395Z,5.60
2023-02-11T12:26:20.468Z,5.70
2023-02-11T12:29:05.726Z,5.70
2023-02-11T12:31:47.017Z,5.60
2023-02-11T12:34:56.741Z,5.50
2023-02-11T12:37:23.310Z,5.50
2023-02-11T12:40:02.065Z,5.50
2023-02-11T12:43:08.808Z,5.50
2023-02-11T12:45:51.985Z,5.60
2023-02-11T12:48:33.593Z,5.70
2023-02-11T12:51:16.450Z,5.70
2023-02-11T12:53:48.664Z,5.70
2023-02-11T12:56:26.416Z,5.60
2023-02-11T12:58:56.105Z,5.60
2023-02-11T13:01:35.449Z,5.50
2023-02-11T13:04:23.908Z,5.40
2023-02-11T13:06:58.924Z,5.40
2023-02-11T13:09:32.434Z,5.50
2023-02-11T13:12:23.659Z,5.40
2023-02-11T13:14:54.091Z,5.50
2023-02-11T13:17:36.093Z,5.50
2023-02-11T13:20:52.154Z,5.50
2023-02-11T13:23:31.517Z,5.50
2023-02-11T13:26:09.948Z,5.50
2023-02-11T13:28:50.391Z,5.50
2023-02-11T13:31:20.183Z,5.50
2023-02-11T13:33:49.585Z,5.40
2023-02-11T13:36:22.177Z,5.50
2023-02-11T13:39:04.377Z,5.60
2023-02-11T13:41:38.303Z,5.50
2023-02-11T13:44:19.195Z,5.50
2023-02-11T13:47:04.970Z,5.50
2023-02-11T13:49:33.433Z,5.40
2023-02-11T13:52:03.341Z,5.40
2023-02-11T13:54:38.995Z,5.40
2023-02-11T13:57:19.702Z,5.40
2023-02-11T13:59:52.344Z,5.40
2023-02-11T14:02:50.296Z,5.40
2023-02-11T14:05:49.014Z,5.40
2023-02-11T14:08:40.187Z,5.30
2023-02-11T14:11:29.901Z,5.30
2023-02-11T14:14:11.809Z,5.30
2023-02-11T14:17:01.350Z,5.30
2023-02-11T14:19:34.119Z,5.40
2023-02-11T14:22:06.336Z,5.40
2023-02-11T14:24:32.912Z,5.40
2023-02-11T14:27:09.874Z,5.40
2023-02-11T14:29:46.909Z,5.40
2023-02-11T14:32:27.244Z,5.40
2023-02-11T14:35:07.787Z,5.40
2023-02-11T14:38:12.580Z,5.50
2023-02-11T14:41:01.865Z,5.60
2023-02-11T14:43:35.083Z,5.50
2023-02-11T14:46:02.949Z,5.50
2023-02-11T14:48:35.093Z,5.50
2023-02-11T14:51:14.689Z,5.50
2023-02-11T14:53:43.802Z,5.50
2023-02-11T14:56:26.289Z,5.50
2023-02-11T14:58:54.835Z,5.60
2023-02-11T15:01:46.955Z,5.60
2023-02-11T15:04:26.201Z,5.60
2023-02-11T15:06:55.039Z,5.60
2023-02-11T15:09:37.166Z,5.60
2023-02-11T15:12:04.118Z,5.60
2023-02-11T15:14:33.679Z,5.60
2023-02-11T15:17:04.253Z,5.60
2023-02-11T15:19:39.909Z,5.70
2023-02-11T15:22:18.401Z,5.70
2023-02-11T15:24:45.530Z,5.70
2023-02-11T15:27:15.450Z,5.70
2023-02-11T15:29:49.122Z,5.80
2023-02-11T15:32:18.514Z,5.70
2023-02-11T15:34:46.923Z,5.80
2023-02-11T15:37:22.248Z,5.70
2023-02-11T15:39:49.328Z,5.80
2023-02-11T15:42:17.124Z,5.80
2023-02-11T15:44:43.966Z,5.90
2023-02-11T15:47:18.673Z,5.80
2023-02-11T15:49:46.812Z,5.80
2023-02-11T15:52:21.503Z,5.80
2023-02-11T15:54:49.308Z,5.80
2023-02-11T15:57:17.759Z,5.80
2023-02-11T15:59:51.970Z,5.80
2023-02-11T16:02:22.127Z,5.80
2023-02-11T16:04:51.793Z,5.80
2023-02-11T16:07:41.141Z,5.80
2023-02-11T16:10:18.155Z,5.80
2023-02-11T16:13:18.757Z,5.80
2023-02-11T16:15:56.734Z,5.80
2023-02-11T16:18:37.696Z,5.80
2023-02-11T16:21:15.825Z,5.80
2023-02-11T16:23:43.274Z,5.70
2023-02-11T16:26:27.261Z,5.70
2023-02-11T16:29:01.614Z,5.70
2023-02-11T16:31:37.276Z,5.70
2023-02-11T16:34:19.828Z,5.70
2023-02-11T16:36:47.402Z,5.70
2023-02-11T16:39:14.461Z,5.70
2023-02-11T16:41:41.198Z,5.70
2023-02-11T16:44:07.940Z,5.70
2023-02-11T16:46:36.344Z,5.60
2023-02-11T16:49:18.052Z,5.60
2023-02-11T16:51:46.549Z,5.60
2023-02-11T16:54:15.151Z,5.60
2023-02-11T16:56:42.557Z,5.60
2023-02-11T16:59:09.765Z,5.60
2023-02-11T17:01:38.974Z,5.60
2023-02-11T17:04:06.985Z,5.60
2023-02-11T17:06:34.894Z,5.60
2023-02-11T17:09:01.684Z,5.60
2023-02-11T17:11:28.352Z,5.60
2023-02-11T17:13:55.138Z,5.70
2023-02-11T17:16:23.314Z,5.70
2023-02-11T17:18:50.457Z,5.70
2023-02-11T17:21:17.231Z,5.70
2023-02-11T17:23:45.788Z,5.70
2023-02-11T17:26:12.454Z,5.70
2023-02-11T17:28:39.071Z,5.70
2023-02-11T17:31:09.783Z,5.70
2023-02-11T17:33:37.798Z,5.70
2023-02-11T17:36:09.518Z,5.70
2023-02-11T17:38:37.977Z,5.70
2023-02-11T17:41:05.451Z,5.80
2023-02-11T17:43:32.196Z,5.80
2023-02-11T17:45:58.828Z,5.80
2023-02-11T17:48:25.696Z,5.80
2023-02-11T17:50:52.420Z,5.80
2023-02-11T17:53:18.992Z,5.80
2023-02-11T17:55:45.702Z,5.90
2023-02-11T17:58:12.334Z,5.80
2023-02-11T18:00:39.087Z,5.90
2023-02-11T18:03:05.657Z,5.90
2023-02-11T18:05:36.970Z,5.90
2023-02-11T18:08:07.906Z,5.80
2023-02-11T18:10:35.603Z,5.80
2023-02-11T18:13:02.401Z,5.90
2023-02-11T18:15:29.067Z,5.80
2023-02-11T18:17:55.959Z,5.90
2023-02-11T18:20:22.745Z,5.80
2023-02-11T18:22:49.499Z,5.80
2023-02-11T18:25:16.424Z,5.80
2023-02-11T18:27:43.365Z,5.80
2023-02-11T18:30:16.977Z,5.70
2023-02-11T18:32:43.672Z,5.70
2023-02-11T18:35:14.849Z,5.70
2023-02-11T18:37:42.721Z,5.70
2023-02-11T18:40:11.447Z,5.70
2023-02-11T18:42:38.872Z,5.70
2023-02-11T18:45:09.368Z,5.60
2023-02-11T18:47:39.617Z,5.60
2023-02-11T18:50:08.204Z,5.60
2023-02-11T18:52:38.108Z,5.60
2023-02-11T18:55:06.307Z,5.60
2023-02-11T18:57:32.995Z,5.60
2023-02-11T18:59:59.786Z,5.60
2023-02-11T19:02:26.897Z,5.60
2023-02-11T19:04:53.517Z,5.60
2023-02-11T19:07:20.156Z,5.60
2023-02-11T19:09:46.873Z,5.60
2023-02-11T19:12:13.495Z,5.60
2023-02-11T19:14:40.159Z,5.60
2023-02-11T19:17:08.065Z,5.50
2023-02-11T19:19:36.433Z,5.60
2023-02-11T19:22:08.497Z,5.60
2023-02-11T19:24:37.210Z,5.50
2023-02-11T19:27:04.537Z,5.50
2023-02-11T19:29:33.474Z,5.50
2023-02-11T19:32:00.176Z,5.50
2023-02-11T19:34:26.912Z,5.50
2023-02-11T19:36:54.291Z,5.50
2023-02-11T19:39:21.341Z,5.50
2023-02-11T19:41:48.043Z,5.50
2023-02-11T19:44:14.736Z,5.50
2023-02-11T19:46:41.556Z,5.50
2023-02-11T19:49:09.810Z,5.50
2023-02-11T19:51:39.157Z,5.50
2023-02-11T19:54:07.240Z,5.50
2023-02-11T19:56:34.269Z,5.50
2023-02-11T19:59:03.522Z,5.50
2023-02-11T20:01:30.320Z,5.60
2023-02-11T20:03:57.708Z,5.50
2023-02-11T20:06:30.278Z,5.50
2023-02-11T20:09:00.123Z,5.50
2023-02-11T20:11:29.066Z,5.50
2023-02-11T20:13:56.883Z,5.50
2023-02-11T20:16:40.643Z,5.50
2023-02-11T20:19:07.797Z,5.50
2023-02-11T20:21:34.436Z,5.50
2023-02-11T20:24:01.225Z,5.50
2023-02-11T20:26:30.124Z,5.60
2023-02-11T20:28:58.819Z,5.40
2023-02-11T20:31:26.689Z,5.40
2023-02-11T20:33:53.441Z,5.40
2023-02-11T20:36:23.612Z,5.40
2023-02-11T20:38:51.357Z,5.30
2023-02-11T20:41:20.747Z,5.40
2023-02-11T20:43:51.889Z,5.40
2023-02-11T20:46:21.514Z,5.40
2023-02-11T20:48:48.224Z,5.30
2023-02-11T20:51:17.710Z,5.30
2023-02-11T20:53:48.726Z,5.30
2023-02-11T20:56:16.150Z,5.30
2023-02-11T20:58:43.191Z,5.30
2023-02-11T21:01:13.961Z,5.30
2023-02-11T21:03:43.672Z,5.30
2023-02-11T21:06:11.045Z,5.30
2023-02-11T21:08:38.302Z,5.40
2023-02-11T21:11:09.394Z,5.30
2023-02-11T21:13:37.407Z,5.30
2023-02-11T21:16:04.774Z,5.30
2023-02-11T21:18:31.673Z,5.30
2023-02-11T21:20:58.410Z,5.30
2023-02-11T21:23:25.394Z,5.30
2023-02-11T21:25:53.785Z,5.30
2023-02-11T21:28:26.040Z,5.30
2023-02-11T21:30:55.573Z,5.30
2023-02-11T21:33:23.705Z,5.30
2023-02-11T21:35:54.718Z,5.40
2023-02-11T21:38:22.140Z,5.40
2023-02-11T21:40:48.810Z,5.40
2023-02-11T21:43:15.683Z,5.40
2023-02-11T21:45:43.980Z,5.40
2023-02-11T21:48:11.196Z,5.40
2023-02-11T21:50:45.812Z,5.40
2023-02-11T21:53:13.637Z,5.40
2023-02-11T21:55:41.094Z,5.40
2023-02-11T21:58:08.421Z,5.40
2023-02-11T22:00:35.437Z,5.40
2023-02-11T22:03:02.203Z,5.40
2023-02-11T22:05:28.889Z,5.40
2023-02-11T22:07:55.677Z,5.50
2023-02-11T22:10:22.600Z,5.50
2023-02-11T22:12:49.353Z,5.50
2023-02-11T22:15:16.140Z,5.50
2023-02-11T22:17:42.732Z,5.50
2023-02-11T22:20:10.177Z,5.50
2023-02-11T22:22:36.892Z,5.50
2023-02-11T22:25:04.039Z,5.50
2023-02-11T22:27:30.841Z,5.30
2023-02-11T22:29:57.505Z,5.30
2023-02-11T22:32:24.197Z,5.30
2023-02-11T22:34:53.202Z,5.40
2023-02-11T22:37:20.349Z,5.40
2023-02-11T22:39:47.069Z,5.40
2023-02-11T22:42:13.671Z,5.40
2023-02-11T22:44:40.265Z,5.40
2023-02-11T22:47:07.082Z,5.50
2023-02-11T22:49:33.743Z,5.50
2023-02-11T22:52:00.458Z,5.50
2023-02-11T22:54:27.484Z,5.50
2023-02-11T22:56:54.163Z,5.60
2023-02-11T22:59:20.809Z,5.60
2023-02-11T23:01:47.877Z,5.60
2023-02-11T23:04:15.891Z,5.70
2023-02-11T23:06:42.852Z,5.60
2023-02-11T23:09:12.407Z,5.60
2023-02-11T23:11:39.130Z,5.60
2023-02-11T23:14:05.902Z,5.60
2023-02-11T23:16:34.089Z,5.70
2023-02-11T23:19:03.547Z,5.70
2023-02-11T23:21:32.100Z,5.60
2023-02-11T23:24:04.993Z,5.60
2023-02-11T23:26:32.054Z,5.60
2023-02-11T23:28:59.622Z,5.60
2023-02-11T23:31:34.129Z,5.60
2023-02-11T23:34:01.451Z,5.60
2023-02-11T23:36:28.343Z,5.60
2023-02-11T23:38:55.220Z,5.60
2023-02-11T23:41:22.721Z,5.60
2023-02-11T23:43:54.224Z,5.60
2023-02-11T23:46:22.182Z,5.60
2023-02-11T23:48:49.653Z,5.60
2023-02-11T23:51:16.734Z,5.60
2023-02-11T23:53:45.796Z,5.60
2023-02-11T23:56:19.057Z,5.60
2023-02-11T23:58:48.979Z,5.60
